Time;durP1;ratioP1;P1;durP2;ratioP2;P2;SDS_P1;SDS_P2;PMS_P1;PMS_P2;Temp;Humidity;BMP_temperature;BMP_pressure;BME280_temperature;BME280_humidity;BME280_pressure;Samples;Min_cycle;Max_cycle;Signal;HPM_P1;HPM_P2
2022/12/07 00:01:11;;;;;;;18.80;13.43;;;2.80;99.90;2.10;99464;;;;574006;247;24127;-78
2022/12/07 00:03:42;;;;;;;19.00;13.17;;;2.80;99.90;2.10;99461;;;;573518;247;24092;-73
2022/12/07 00:06:07;;;;;;;16.83;12.63;;;2.80;99.90;2.10;99458;;;;572884;247;24099;-73
2022/12/07 00:08:38;;;;;;;16.50;12.00;;;2.80;99.90;2.10;99455;;;;581858;246;24193;-77
2022/12/07 00:11:06;;;;;;;16.87;12.20;;;2.80;99.90;2.10;99456;;;;581426;246;24111;-73
2022/12/07 00:13:34;;;;;;;17.70;11.67;;;2.80;99.90;2.10;99457;;;;572810;247;24119;-73
2022/12/07 00:16:03;;;;;;;16.47;12.53;;;2.80;99.90;2.10;99456;;;;572808;247;24135;-73
2022/12/07 00:18:31;;;;;;;18.53;11.63;;;2.80;99.90;2.10;99448;;;;581901;242;24080;-74
2022/12/07 00:21:07;;;;;;;17.03;12.23;;;2.80;99.90;2.00;99442;;;;573111;247;24191;-74
2022/12/07 00:23:35;;;;;;;19.23;12.17;;;2.80;99.90;2.00;99439;;;;578715;247;24114;-74
2022/12/07 00:26:12;;;;;;;17.17;12.43;;;2.80;99.90;2.00;99444;;;;578660;247;24071;-74
2022/12/07 00:28:44;;;;;;;17.27;11.57;;;2.70;99.90;2.00;99438;;;;568442;247;24127;-76
2022/12/07 00:31:09;;;;;;;17.13;12.53;;;2.80;99.90;2.00;99439;;;;573453;247;25128;-79
2022/12/07 00:33:38;;;;;;;19.40;12.97;;;2.70;99.90;2.00;99444;;;;573964;247;24122;-81
2022/12/07 00:36:08;;;;;;;17.70;12.10;;;2.70;99.90;2.00;99424;;;;574552;243;24080;-75
2022/12/07 00:38:36;;;;;;;16.77;11.97;;;2.80;99.90;2.00;99441;;;;580810;247;25153;-73
2022/12/07 00:41:06;;;;;;;15.70;11.63;;;2.80;99.90;2.00;99439;;;;574641;247;24149;-72
2022/12/07 00:43:34;;;;;;;18.27;12.50;;;2.80;99.90;2.00;99439;;;;571491;247;24091;-73
2022/12/07 00:46:02;;;;;;;17.37;11.40;;;2.80;99.90;2.00;99440;;;;573933;247;24129;-74
2022/12/07 00:48:30;;;;;;;15.80;11.37;;;2.70;99.90;2.00;99436;;;;579678;247;24131;-73
2022/12/07 00:50:58;;;;;;;18.27;12.17;;;2.80;99.90;2.00;99443;;;;579815;247;24080;-73
2022/12/07 00:53:28;;;;;;;18.50;11.90;;;2.80;99.90;2.00;99429;;;;579759;247;24080;-75
2022/12/07 00:55:55;;;;;;;15.23;10.33;;;2.80;99.90;2.00;99427;;;;582354;243;24209;-73
2022/12/07 00:58:21;;;;;;;18.23;11.57;;;2.70;99.90;2.00;99433;;;;579467;247;24079;-73
2022/12/07 01:00:49;;;;;;;16.00;11.80;;;2.80;99.90;2.00;99430;;;;579609;247;24111;-72
2022/12/07 01:03:17;;;;;;;16.60;11.80;;;2.70;99.90;2.00;99420;;;;579746;247;24057;-73
2022/12/07 01:05:55;;;;;;;15.60;11.27;;;2.70;99.90;2.00;99428;;;;574501;247;24185;-78
2022/12/07 01:08:20;;;;;;;15.27;12.10;;;2.70;99.90;2.00;99418;;;;574261;247;24240;-73
2022/12/07 01:10:48;;;;;;;16.17;11.13;;;2.80;99.90;2.00;99412;;;;574151;247;24090;-75
2022/12/07 01:13:16;;;;;;;15.43;11.50;;;2.80;99.90;2.00;99417;;;;574083;243;25153;-76
2022/12/07 01:15:48;;;;;;;15.23;11.27;;;2.80;99.90;2.10;99414;;;;574470;247;24070;-83
2022/12/07 01:18:12;;;;;;;19.03;11.57;;;2.80;99.90;2.00;99403;;;;574322;247;24116;-73
2022/12/07 01:20:40;;;;;;;15.17;11.30;;;2.80;99.90;2.10;99408;;;;579898;247;24101;-76
2022/12/07 01:23:09;;;;;;;15.20;11.17;;;2.80;99.90;2.10;99417;;;;580315;247;24077;-78
2022/12/07 01:25:37;;;;;;;19.60;12.80;;;2.80;99.90;2.10;99413;;;;579647;247;24100;-74
2022/12/07 01:28:05;;;;;;;16.23;11.70;;;2.80;99.90;2.10;99416;;;;580008;247;24079;-81
2022/12/07 01:30:33;;;;;;;15.60;10.47;;;2.80;99.90;2.10;99408;;;;574294;247;24097;-77
2022/12/07 01:33:01;;;;;;;15.33;10.27;;;2.90;99.90;2.10;99409;;;;579869;247;24103;-73
2022/12/07 01:35:29;;;;;;;17.23;11.43;;;2.90;99.90;2.10;99404;;;;572997;247;24127;-75
2022/12/07 01:37:57;;;;;;;16.03;11.13;;;2.90;99.90;2.20;99407;;;;578892;247;24120;-73
2022/12/07 01:40:25;;;;;;;15.93;10.70;;;2.90;99.90;2.20;99395;;;;578824;247;24099;-76
2022/12/07 01:42:53;;;;;;;17.00;11.00;;;2.90;99.90;2.20;99400;;;;578754;247;24082;-73
2022/12/07 01:45:39;;;;;;;17.10;10.93;;;2.90;99.90;2.20;99400;;;;578813;247;24278;-74
2022/12/07 01:48:07;;;;;;;17.30;11.17;;;2.90;99.90;2.20;99399;;;;583034;244;24093;-74
2022/12/07 01:50:35;;;;;;;14.63;10.67;;;2.90;99.90;2.20;99404;;;;583088;246;24111;-75
2022/12/07 01:53:03;;;;;;;17.63;11.27;;;2.90;99.90;2.20;99403;;;;573886;247;24083;-76
2022/12/07 01:55:34;;;;;;;16.17;10.60;;;2.90;99.90;2.20;99397;;;;582791;246;24120;-75
2022/12/07 01:57:59;;;;;;;17.50;11.47;;;2.90;99.90;2.10;99390;;;;573109;247;24153;-75
2022/12/07 02:00:27;;;;;;;13.93;10.57;;;2.90;99.90;2.10;99385;;;;573995;247;24117;-74
2022/12/07 02:03:07;;;;;;;16.63;10.97;;;2.90;99.90;2.10;99389;;;;579433;247;24080;-73
2022/12/07 02:05:35;;;;;;;17.60;10.70;;;2.80;99.90;2.10;99382;;;;573788;247;25211;-73
2022/12/07 02:08:03;;;;;;;16.37;10.70;;;2.90;99.90;2.10;99385;;;;573366;247;24090;-73
2022/12/07 02:10:34;;;;;;;17.27;10.20;;;2.90;99.90;2.10;99381;;;;573807;247;24118;-75
2022/12/07 02:12:59;;;;;;;14.43;10.03;;;2.90;99.90;2.20;99379;;;;573408;247;24095;-73
2022/12/07 02:15:49;;;;;;;14.67;10.57;;;2.90;99.90;2.20;99362;;;;571012;247;24083;-74
2022/12/07 02:18:35;;;;;;;15.43;10.93;;;2.90;99.90;2.20;99367;;;;573035;247;24165;-73
2022/12/07 02:21:24;;;;;;;15.37;10.70;;;2.90;99.90;2.20;99368;;;;572078;247;24151;-74
2022/12/07 02:24:29;;;;;;;16.73;11.33;;;2.90;99.90;2.20;99360;;;;571995;247;24088;-72
2022/12/07 02:27:08;;;;;;;14.48;9.45;;;3.00;99.90;2.30;99358;;;;573591;247;35336;-73
2022/12/07 02:29:42;;;;;;;13.57;7.53;;;3.00;99.90;2.30;99357;;;;570986;247;24128;-73
2022/12/07 02:32:31;;;;;;;10.23;6.17;;;3.00;99.90;2.30;99353;;;;582023;246;24106;-75
2022/12/07 02:35:07;;;;;;;10.67;6.53;;;3.00;99.90;2.30;99345;;;;573092;247;24159;-74
2022/12/07 02:37:50;;;;;;;15.13;10.17;;;3.10;99.90;2.30;99340;;;;577141;246;39346;-74
2022/12/07 02:40:48;;;;;;;9.20;5.97;;;3.10;99.90;2.40;99340;;;;573539;247;24111;-76
2022/12/07 02:43:25;;;;;;;12.67;6.57;;;3.10;99.90;2.40;99338;;;;573372;247;24087;-73
2022/12/07 02:45:53;;;;;;;12.10;6.57;;;3.10;99.90;2.40;99337;;;;570306;247;24097;-73
2022/12/07 02:48:21;;;;;;;12.50;6.30;;;3.20;99.90;2.40;99331;;;;582173;246;24087;-73
2022/12/07 02:50:52;;;;;;;9.93;6.30;;;3.20;99.90;2.40;99334;;;;564195;251;24175;-73
2022/12/07 02:53:41;;;;;;;9.43;6.10;;;3.20;99.90;2.40;99331;;;;563716;251;25194;-75
2022/12/07 02:56:33;;;;;;;13.60;8.87;;;3.20;99.90;2.40;99331;;;;571989;251;24126;-72
2022/12/07 02:59:16;;;;;;;12.83;8.57;;;3.20;99.90;2.40;99325;;;;563288;250;24219;-72
2022/12/07 03:02:06;;;;;;;13.13;8.83;;;3.20;99.90;2.40;99320;;;;573823;250;24134;-72
2022/12/07 03:04:46;;;;;;;14.17;10.03;;;3.20;99.90;2.40;99325;;;;561093;251;24127;-77
2022/12/07 03:07:25;;;;;;;11.87;8.57;;;3.20;99.90;2.40;99314;;;;565304;251;24123;-74
2022/12/07 03:10:08;;;;;;;11.50;7.93;;;3.20;99.90;2.40;99315;;;;564851;251;24131;-82
2022/12/07 03:12:42;;;;;;;10.90;8.27;;;3.20;99.90;2.40;99318;;;;563650;251;24179;-76
2022/12/07 03:15:12;;;;;;;10.47;7.73;;;3.20;99.90;2.40;99311;;;;563925;251;24234;-75
2022/12/07 03:17:41;;;;;;;11.50;8.83;;;3.10;99.90;2.40;99311;;;;563973;251;24251;-75
2022/12/07 03:20:08;;;;;;;13.70;7.90;;;3.20;99.90;2.40;99315;;;;564145;251;24158;-76
2022/12/07 03:22:37;;;;;;;9.70;7.07;;;3.10;99.90;2.40;99304;;;;562892;251;24187;-75
2022/12/07 03:25:08;;;;;;;8.47;7.33;;;3.10;99.90;2.30;99315;;;;572901;251;24180;-75
2022/12/07 03:27:55;;;;;;;9.27;6.70;;;3.10;99.90;2.30;99316;;;;562856;251;24180;-75
2022/12/07 03:30:24;;;;;;;8.87;6.70;;;3.00;99.90;2.30;99317;;;;563720;251;24151;-75
2022/12/07 03:32:55;;;;;;;8.17;6.00;;;3.10;99.90;2.30;99311;;;;564214;251;24165;-77
2022/12/07 03:35:25;;;;;;;6.73;5.47;;;3.00;99.90;2.30;99312;;;;561460;251;24130;-80
2022/12/07 03:37:59;;;;;;;6.63;5.33;;;3.00;99.90;2.30;99312;;;;564038;248;24159;-78
2022/12/07 03:40:36;;;;;;;7.90;5.87;;;3.00;99.90;2.30;99298;;;;564125;251;24157;-77
2022/12/07 03:43:04;;;;;;;6.97;5.57;;;3.00;99.90;2.20;99286;;;;563752;251;24119;-83
2022/12/07 03:45:43;;;;;;;5.43;4.93;;;3.00;99.90;2.20;99296;;;;564417;251;24133;-79
2022/12/07 03:48:23;;;;;;;7.33;5.10;;;2.90;99.90;2.20;99282;;;;572124;251;24142;-78
2022/12/07 03:50:56;;;;;;;7.33;5.43;;;2.90;99.90;2.20;99287;;;;563807;251;24119;-80
2022/12/07 03:53:42;;;;;;;6.83;5.83;;;2.90;99.90;2.20;99289;;;;564545;251;24118;-77
2022/12/07 03:56:10;;;;;;;5.67;5.17;;;3.00;99.90;2.20;99279;;;;560434;251;24152;-76
2022/12/07 03:58:38;;;;;;;6.07;5.17;;;2.90;99.90;2.20;99273;;;;563822;251;24192;-74
2022/12/07 04:01:05;;;;;;;6.13;5.10;;;2.90;99.90;2.20;99273;;;;564048;251;24145;-76
2022/12/07 04:03:34;;;;;;;7.10;5.80;;;2.90;99.90;2.20;99266;;;;572006;249;24163;-74
2022/12/07 04:06:02;;;;;;;6.10;5.20;;;2.90;99.90;2.10;99264;;;;572184;251;24168;-75
2022/12/07 04:08:30;;;;;;;7.27;5.07;;;2.90;99.90;2.20;99262;;;;571902;251;24120;-74
2022/12/07 04:10:58;;;;;;;5.77;5.00;;;2.80;99.90;2.10;99254;;;;572725;249;24140;-75
2022/12/07 04:13:26;;;;;;;6.33;5.67;;;2.90;99.90;2.10;99245;;;;573319;250;24150;-74
2022/12/07 04:15:54;;;;;;;5.27;4.60;;;2.90;99.90;2.10;99249;;;;572763;251;24178;-75
2022/12/07 04:18:22;;;;;;;6.63;5.20;;;2.90;99.90;2.10;99247;;;;572813;251;24107;-75
2022/12/07 04:20:49;;;;;;;7.83;5.37;;;2.80;99.90;2.10;99241;;;;572396;251;24119;-76
2022/12/07 04:23:17;;;;;;;5.93;5.33;;;2.90;99.90;2.10;99243;;;;572449;251;24148;-74
2022/12/07 04:25:45;;;;;;;5.83;5.27;;;2.90;99.90;2.10;99247;;;;572250;251;24131;-74
2022/12/07 04:28:13;;;;;;;7.40;6.27;;;2.90;99.90;2.10;99239;;;;564132;251;24183;-74
2022/12/07 04:30:41;;;;;;;6.47;5.80;;;2.90;99.90;2.10;99242;;;;571961;251;24100;-74
2022/12/07 04:33:10;;;;;;;5.83;5.33;;;2.80;99.90;2.10;99248;;;;564023;251;24182;-74
2022/12/07 04:35:38;;;;;;;5.67;5.17;;;2.80;99.90;2.10;99254;;;;572048;247;24099;-74
2022/12/07 04:38:06;;;;;;;4.97;4.47;;;2.90;99.90;2.10;99251;;;;571757;251;24155;-76
2022/12/07 04:40:34;;;;;;;5.20;4.70;;;2.80;99.90;2.10;99251;;;;571964;249;24143;-76
2022/12/07 04:43:02;;;;;;;4.93;4.47;;;2.90;99.90;2.20;99248;;;;572682;251;25168;-76
2022/12/07 04:45:30;;;;;;;5.27;4.43;;;2.90;99.90;2.20;99249;;;;572068;251;24155;-75
2022/12/07 04:47:58;;;;;;;5.20;4.37;;;2.90;99.90;2.20;99246;;;;571761;251;24108;-74
2022/12/07 04:50:26;;;;;;;5.23;4.50;;;2.90;99.90;2.20;99241;;;;571721;251;24134;-74
2022/12/07 04:52:54;;;;;;;4.87;4.20;;;3.00;99.90;2.20;99238;;;;572529;251;24128;-73
2022/12/07 04:55:21;;;;;;;4.87;4.47;;;3.00;99.90;2.30;99232;;;;571911;251;24112;-73
2022/12/07 04:57:50;;;;;;;5.07;4.27;;;3.00;99.90;2.30;99231;;;;572041;251;24121;-81
2022/12/07 05:00:22;;;;;;;5.03;4.43;;;3.00;99.90;2.30;99231;;;;572152;251;24127;-81
2022/12/07 05:02:47;;;;;;;5.10;4.60;;;3.10;99.90;2.30;99223;;;;572398;251;24119;-79
2022/12/07 05:05:15;;;;;;;4.73;4.23;;;3.00;99.90;2.40;99225;;;;572335;247;24134;-79
2022/12/07 05:07:42;;;;;;;5.13;4.70;;;3.10;99.90;2.40;99220;;;;572010;251;24162;-74
2022/12/07 05:10:10;;;;;;;4.70;4.30;;;3.10;99.90;2.40;99215;;;;571828;251;24113;-74
2022/12/07 05:12:38;;;;;;;4.23;3.80;;;3.10;99.90;2.40;99215;;;;563963;251;24158;-77
2022/12/07 05:15:06;;;;;;;3.83;3.53;;;3.20;99.90;2.50;99212;;;;571800;251;24162;-82
2022/12/07 05:17:34;;;;;;;4.17;3.80;;;3.20;99.90;2.40;99214;;;;563845;251;24172;-72
2022/12/07 05:20:05;;;;;;;5.67;4.40;;;3.20;99.90;2.40;99212;;;;563746;251;24112;-73
2022/12/07 05:22:34;;;;;;;5.97;4.27;;;3.20;99.90;2.40;99215;;;;564373;250;24269;-73
2022/12/07 05:24:58;;;;;;;4.47;3.90;;;3.10;99.90;2.40;99211;;;;564729;250;24180;-73
2022/12/07 05:27:26;;;;;;;4.83;4.33;;;3.10;99.90;2.40;99205;;;;572381;251;24214;-73
2022/12/07 05:29:54;;;;;;;5.57;5.07;;;3.10;99.90;2.40;99206;;;;572555;247;24124;-74
2022/12/07 05:32:22;;;;;;;5.60;5.07;;;3.10;99.90;2.40;99213;;;;572190;247;24211;-73
2022/12/07 05:34:49;;;;;;;5.35;4.50;;;3.10;99.90;2.40;99207;;;;567364;251;35418;-74
2022/12/07 05:37:17;;;;;;;3.80;2.83;;;3.20;99.90;2.40;99210;;;;572296;251;24183;-81
2022/12/07 05:39:45;;;;;;;3.27;2.90;;;3.20;99.90;2.50;99199;;;;572133;249;24198;-77
2022/12/07 05:42:13;;;;;;;3.97;3.30;;;3.20;99.90;2.50;99212;;;;564298;251;24185;-74
2022/12/07 05:44:41;;;;;;;6.53;3.33;;;3.30;99.90;2.60;99211;;;;572121;249;24102;-73
2022/12/07 05:47:09;;;;;;;3.70;2.37;;;3.30;99.90;2.60;99204;;;;564631;251;24122;-77
2022/12/07 05:49:38;;;;;;;3.77;3.00;;;3.40;99.90;2.70;99197;;;;564380;251;24160;-78
2022/12/07 05:52:09;;;;;;;2.67;2.47;;;3.40;99.90;2.70;99206;;;;572535;249;24144;-76
2022/12/07 05:54:33;;;;;;;3.87;2.93;;;3.40;99.90;2.70;99197;;;;564264;251;24152;-78
2022/12/07 05:57:01;;;;;;;2.67;2.30;;;3.40;99.90;2.70;99192;;;;572786;249;24143;-81
2022/12/07 05:59:29;;;;;;;3.40;3.10;;;3.50;99.90;2.70;99208;;;;572573;248;24126;-79
2022/12/07 06:02:03;;;;;;;3.00;2.70;;;3.50;99.90;2.70;99203;;;;572399;251;24146;-80
2022/12/07 06:04:31;;;;;;;4.57;2.63;;;3.50;99.90;2.70;99199;;;;564660;251;24124;-76
2022/12/07 06:07:02;;;;;;;3.27;2.63;;;3.50;99.90;2.70;99200;;;;572682;251;24123;-76
2022/12/07 06:09:26;;;;;;;3.20;2.47;;;3.50;99.90;2.80;99194;;;;564217;250;24142;-77
2022/12/07 06:14:41;;;;;;;4.17;2.83;;;3.50;99.90;2.70;99195;;;;564127;251;24170;-75
2022/12/07 06:17:13;;;;;;;3.57;2.37;;;3.50;99.90;2.80;99192;;;;572005;251;24121;-74
2022/12/07 06:19:38;;;;;;;1.93;1.83;;;3.50;99.90;2.70;99178;;;;564057;250;24186;-74
2022/12/07 06:22:08;;;;;;;2.83;1.73;;;3.50;99.90;2.70;99189;;;;572072;251;24329;-73
2022/12/07 06:24:33;;;;;;;1.17;1.17;;;3.50;99.90;2.60;99178;;;;564200;251;24132;-73
2022/12/07 06:27:01;;;;;;;1.73;1.63;;;3.40;99.90;2.60;99179;;;;572169;249;24108;-75
2022/12/07 06:29:29;;;;;;;2.03;1.90;;;3.40;99.90;2.50;99171;;;;564252;251;24144;-74
2022/12/07 06:32:01;;;;;;;2.50;2.30;;;3.30;99.90;2.50;99170;;;;572198;249;24121;-73
2022/12/07 06:34:26;;;;;;;1.60;1.50;;;3.20;99.90;2.40;99160;;;;565287;250;24171;-77
2022/12/07 06:36:58;;;;;;;2.97;2.30;;;3.10;99.90;2.40;99158;;;;565385;250;24168;-74
2022/12/07 06:39:22;;;;;;;4.40;2.77;;;3.10;99.90;2.30;99153;;;;573213;250;24127;-74
2022/12/07 06:41:51;;;;;;;4.37;2.53;;;3.10;99.90;2.30;99164;;;;563775;251;24182;-76
2022/12/07 06:44:22;;;;;;;2.10;2.00;;;3.00;99.90;2.20;99155;;;;564774;251;24165;-74
2022/12/07 06:46:46;;;;;;;3.10;2.13;;;3.00;99.90;2.20;99158;;;;564169;251;25383;-74
2022/12/07 06:49:14;;;;;;;2.90;1.80;;;3.00;99.90;2.20;99150;;;;572558;251;24160;-74
2022/12/07 06:51:46;;;;;;;2.43;2.10;;;3.00;99.90;2.10;99150;;;;564223;251;24148;-75
2022/12/07 06:54:12;;;;;;;4.80;2.87;;;2.90;99.90;2.10;99149;;;;558613;251;35416;-73
2022/12/07 06:56:44;;;;;;;1.77;1.53;;;2.80;99.90;2.10;99150;;;;564249;251;24178;-75
2022/12/07 06:59:09;;;;;;;2.50;2.00;;;2.80;99.90;2.10;99148;;;;563878;251;24114;-75
2022/12/07 07:01:40;;;;;;;3.23;2.60;;;2.90;99.90;2.10;99146;;;;564244;251;25199;-74
2022/12/07 07:04:05;;;;;;;3.07;2.77;;;2.80;99.90;2.00;99142;;;;564004;251;24253;-74
2022/12/07 07:06:33;;;;;;;3.30;3.00;;;2.80;99.90;2.00;99147;;;;571993;249;24136;-73
2022/12/07 07:09:00;;;;;;;2.90;2.70;;;2.80;99.90;2.00;99147;;;;571973;249;24183;-73
2022/12/07 07:11:28;;;;;;;3.40;3.10;;;2.70;99.90;1.90;99143;;;;571642;251;24125;-73
2022/12/07 07:14:02;;;;;;;4.53;4.10;;;2.70;99.90;2.00;99146;;;;571654;249;24169;-73
2022/12/07 07:16:28;;;;;;;3.53;3.23;;;2.70;99.90;1.90;99151;;;;571965;251;24207;-73
2022/12/07 07:18:56;;;;;;;5.60;3.77;;;2.70;99.90;1.90;99143;;;;571928;247;24144;-75
2022/12/07 07:21:24;;;;;;;5.07;4.40;;;2.70;99.90;1.90;99145;;;;572032;247;24105;-73
2022/12/07 07:23:51;;;;;;;5.67;4.77;;;2.70;99.90;2.00;99153;;;;572066;251;24111;-73
2022/12/07 07:26:19;;;;;;;9.07;5.13;;;2.70;99.90;2.00;99145;;;;572024;249;24156;-73
2022/12/07 07:28:47;;;;;;;11.57;5.83;;;2.70;99.90;2.00;99140;;;;572067;251;24152;-75
2022/12/07 07:31:15;;;;;;;8.40;5.00;;;2.70;99.90;2.00;99146;;;;572072;251;24100;-73
2022/12/07 07:33:43;;;;;;;5.00;4.43;;;2.70;99.90;2.00;99147;;;;571961;249;24133;-73
2022/12/07 07:36:11;;;;;;;4.50;4.10;;;2.70;99.90;2.00;99143;;;;571903;251;24112;-76
2022/12/07 07:38:39;;;;;;;5.23;4.50;;;2.80;99.90;2.00;99143;;;;571962;247;24173;-74
2022/12/07 07:41:10;;;;;;;8.67;5.00;;;2.70;99.90;1.90;99148;;;;571931;247;24154;-76
2022/12/07 07:43:35;;;;;;;5.43;4.93;;;2.70;99.90;1.90;99144;;;;572245;251;25167;-73
2022/12/07 07:46:03;;;;;;;7.03;5.60;;;2.70;99.90;1.90;99132;;;;572995;248;24115;-74
2022/12/07 07:48:31;;;;;;;6.40;5.80;;;2.70;99.90;1.90;99138;;;;572774;248;24131;-73
2022/12/07 07:51:03;;;;;;;7.57;5.47;;;2.70;99.90;1.90;99130;;;;572411;247;24127;-72
2022/12/07 07:53:27;;;;;;;7.80;6.43;;;2.70;99.90;2.00;99129;;;;564056;251;24165;-73
2022/12/07 07:55:55;;;;;;;9.03;6.60;;;2.80;99.90;2.00;99126;;;;572083;247;24093;-74
2022/12/07 07:58:23;;;;;;;7.50;6.07;;;2.80;99.90;2.10;99131;;;;563942;251;24174;-74
2022/12/07 08:00:54;;;;;;;9.95;7.75;;;2.80;99.90;2.20;99123;;;;567240;249;35487;-73
2022/12/07 08:03:19;;;;;;;4.67;3.77;;;3.00;99.90;2.20;99125;;;;571830;250;24118;-74
2022/12/07 08:05:47;;;;;;;5.50;4.63;;;3.00;99.90;2.30;99125;;;;571692;249;24155;-73
2022/12/07 08:08:15;;;;;;;7.77;6.70;;;3.10;99.90;2.40;99130;;;;571861;248;24108;-74
2022/12/07 08:10:42;;;;;;;7.27;6.57;;;3.20;99.90;2.70;99128;;;;571832;248;24205;-74
2022/12/07 08:13:16;;;;;;;7.40;6.70;;;3.30;99.90;2.90;99123;;;;571928;248;24163;-74
2022/12/07 08:15:44;;;;;;;8.50;5.20;;;3.60;99.90;3.10;99123;;;;571944;251;24127;-80
2022/12/07 08:18:12;;;;;;;6.40;5.80;;;3.80;99.90;3.30;99124;;;;573112;251;24127;-75
2022/12/07 08:20:40;;;;;;;4.87;4.47;;;4.00;99.90;3.50;99117;;;;564379;251;24165;-78
2022/12/07 08:23:11;;;;;;;6.57;4.07;;;4.20;99.90;3.60;99126;;;;564274;251;24152;-82
2022/12/07 08:25:39;;;;;;;3.73;2.37;;;4.40;99.90;3.70;99119;;;;572641;251;24153;-82
2022/12/07 08:28:04;;;;;;;4.60;4.20;;;4.40;99.90;3.70;99128;;;;572732;251;24218;-80
2022/12/07 08:30:36;;;;;;;5.67;4.67;;;4.40;99.90;3.60;99124;;;;564241;251;25164;-73
2022/12/07 08:33:03;;;;;;;5.27;3.07;;;4.40;99.90;3.50;99133;;;;564074;251;24122;-74
2022/12/07 08:35:28;;;;;;;4.10;3.37;;;4.40;99.90;3.40;99118;;;;564161;251;24195;-82
2022/12/07 08:37:57;;;;;;;5.33;3.83;;;4.20;99.90;3.40;99123;;;;572366;251;24121;-79
2022/12/07 08:40:25;;;;;;;4.07;3.70;;;4.20;99.90;3.30;99110;;;;572995;251;24173;-80
2022/12/07 08:42:53;;;;;;;5.33;3.93;;;4.10;99.90;3.30;99125;;;;572378;249;24172;-73
2022/12/07 08:45:21;;;;;;;5.07;3.57;;;4.10;99.90;3.30;99116;;;;572418;251;24167;-82
2022/12/07 08:47:55;;;;;;;6.67;3.27;;;4.00;99.90;3.20;99123;;;;564366;251;24145;-82
2022/12/07 08:50:23;;;;;;;5.33;3.60;;;4.00;99.90;3.20;99116;;;;564090;251;24168;-84
2022/12/07 08:52:54;;;;;;;4.30;3.43;;;4.00;99.90;3.20;99119;;;;564306;251;24131;-83
2022/12/07 08:55:22;;;;;;;3.13;2.43;;;4.00;99.90;3.20;99124;;;;572385;251;24135;-82
2022/12/07 08:57:50;;;;;;;5.15;4.53;;;4.00;99.90;3.20;99117;;;;560225;250;35418;-83
2022/12/07 09:00:22;;;;;;;4.50;3.07;;;4.00;99.90;3.20;99114;;;;564496;250;24120;-81
2022/12/07 09:02:49;;;;;;;5.63;2.43;;;4.00;99.90;3.10;99101;;;;573141;250;24142;-81
2022/12/07 09:05:17;;;;;;;6.77;4.00;;;3.90;99.90;3.00;99109;;;;564925;251;24111;-83
2022/12/07 09:07:44;;;;;;;6.73;3.83;;;3.80;99.90;3.00;99108;;;;573628;248;24159;-78
2022/12/07 09:10:13;;;;;;;5.07;4.00;;;3.70;99.90;3.00;99106;;;;564902;251;24157;-80
2022/12/07 09:12:44;;;;;;;4.33;3.53;;;3.70;99.90;2.90;99103;;;;572988;251;24123;-82
2022/12/07 09:15:15;;;;;;;5.37;3.50;;;3.70;99.90;2.90;99103;;;;572678;247;24170;-80
2022/12/07 09:17:40;;;;;;;4.10;3.57;;;3.70;99.90;3.00;99102;;;;564390;251;24137;-80
2022/12/07 09:20:11;;;;;;;4.17;3.23;;;3.70;99.90;2.90;99105;;;;572110;248;24153;-79
2022/12/07 09:22:36;;;;;;;5.30;3.83;;;3.70;99.90;3.00;99102;;;;572603;251;24161;-79
2022/12/07 09:25:07;;;;;;;6.33;3.33;;;3.70;99.90;3.00;99105;;;;572035;247;24127;-81
2022/12/07 09:27:31;;;;;;;11.17;4.53;;;3.70;99.90;3.00;99107;;;;563955;251;24125;-82
2022/12/07 09:30:03;;;;;;;5.07;4.60;;;3.80;99.90;3.00;99097;;;;564284;251;24174;-81
2022/12/07 09:32:28;;;;;;;6.18;4.85;;;3.80;99.90;3.10;99098;;;;558691;251;35518;-83
2022/12/07 09:34:56;;;;;;;3.97;3.67;;;3.80;99.90;3.10;99100;;;;571969;249;24116;-83
2022/12/07 09:37:25;;;;;;;4.20;3.13;;;3.90;99.90;3.10;99100;;;;571733;249;24153;-78
2022/12/07 09:39:53;;;;;;;6.43;3.83;;;3.90;99.90;3.20;99095;;;;562762;251;24099;-78
2022/12/07 09:42:26;;;;;;;3.60;3.30;;;3.90;99.90;3.20;99098;;;;571820;247;24116;-83
2022/12/07 09:44:58;;;;;;;5.03;3.73;;;3.90;99.90;3.20;99111;;;;562421;251;24241;-81
2022/12/07 09:47:22;;;;;;;5.60;3.63;;;3.90;99.90;3.30;99098;;;;563449;250;24134;-77
2022/12/07 09:49:51;;;;;;;4.30;3.83;;;4.10;99.90;3.40;99103;;;;563683;251;24166;-73
2022/12/07 09:52:19;;;;;;;4.57;3.40;;;4.10;99.90;3.40;99106;;;;563900;251;24142;-75
2022/12/07 09:54:47;;;;;;;6.03;3.37;;;4.20;99.90;3.40;99109;;;;562383;251;24126;-75
2022/12/07 09:57:18;;;;;;;4.00;3.17;;;4.10;99.90;3.40;99108;;;;572648;251;24114;-75
2022/12/07 09:59:43;;;;;;;5.37;4.00;;;4.20;99.90;3.50;99115;;;;562857;251;24138;-83
2022/12/07 10:02:24;;;;;;;4.80;4.23;;;4.20;99.90;3.50;99106;;;;572117;249;24172;-82
2022/12/07 10:04:54;;;;;;;7.53;3.60;;;4.20;99.90;3.50;99106;;;;563359;251;24149;-77
2022/12/07 10:07:19;;;;;;;6.90;4.10;;;4.30;99.90;3.60;99106;;;;572332;249;24155;-79
2022/12/07 10:09:48;;;;;;;3.83;3.20;;;4.30;99.90;3.60;99114;;;;565732;250;24118;-83
2022/12/07 10:12:15;;;;;;;5.03;3.83;;;4.30;99.90;3.60;99113;;;;573197;250;24130;-84
2022/12/07 10:15:02;;;;;;;4.23;3.83;;;4.30;99.90;3.60;99112;;;;572912;247;24128;-79
2022/12/07 10:17:43;;;;;;;5.57;3.40;;;4.30;99.90;3.60;99109;;;;564266;251;24171;-84
2022/12/07 10:20:18;;;;;;;5.03;4.03;;;4.30;99.90;3.60;99110;;;;572949;251;24151;-85
2022/12/07 10:23:05;;;;;;;6.93;4.43;;;4.30;99.90;3.60;99096;;;;564231;251;24113;-81
2022/12/07 10:25:33;;;;;;;4.33;3.33;;;4.30;99.90;3.60;99092;;;;563231;251;24099;-81
2022/12/07 10:28:16;;;;;;;4.43;3.67;;;4.30;99.90;3.50;99090;;;;573155;251;24130;-84
2022/12/07 10:31:01;;;;;;;4.07;3.50;;;4.20;99.90;3.50;99087;;;;563565;251;24111;-74
2022/12/07 10:33:33;;;;;;;4.30;3.70;;;4.20;99.90;3.50;99091;;;;563406;251;24163;-75
2022/12/07 10:36:05;;;;;;;4.90;3.70;;;4.20;99.90;3.50;99083;;;;573244;250;24123;-80
2022/12/07 10:38:33;;;;;;;5.63;3.40;;;4.20;99.90;3.50;99090;;;;563886;250;24182;-84
2022/12/07 10:41:03;;;;;;;9.90;3.70;;;4.20;99.90;3.60;99093;;;;564303;251;24109;-84
2022/12/07 10:43:32;;;;;;;4.40;3.40;;;4.40;99.90;3.60;99093;;;;564670;251;24099;-82
2022/12/07 10:46:24;;;;;;;7.53;4.03;;;4.30;99.90;3.70;99081;;;;572485;249;24182;-84
2022/12/07 10:49:04;;;;;;;4.53;3.30;;;4.40;99.90;3.80;99071;;;;572082;251;24150;-82
2022/12/07 10:51:41;;;;;;;6.93;3.73;;;4.50;99.90;3.80;99080;;;;563533;251;24129;-83
2022/12/07 10:54:24;;;;;;;4.73;3.40;;;4.50;99.90;3.70;99069;;;;564159;251;24230;-81
2022/12/07 10:56:52;;;;;;;5.97;3.30;;;4.50;99.90;3.70;99075;;;;563452;251;24137;-80
2022/12/07 10:59:44;;;;;;;3.80;3.50;;;4.50;99.90;3.70;99072;;;;563502;251;24122;-77
2022/12/07 11:02:12;;;;;;;5.43;4.13;;;4.50;99.90;3.80;99063;;;;564122;251;24116;-76
2022/12/07 11:05:04;;;;;;;4.93;2.93;;;4.50;99.90;3.80;99065;;;;564358;251;24171;-76
2022/12/07 11:07:56;;;;;;;6.03;4.00;;;4.50;99.90;3.80;99062;;;;564046;251;24146;-75
2022/12/07 11:10:27;;;;;;;7.90;4.43;;;4.60;99.90;3.90;99059;;;;549589;251;24100;-85
2022/12/07 11:13:09;;;;;;;3.77;3.47;;;4.60;99.90;4.00;99052;;;;564031;251;24141;-86
2022/12/07 11:15:55;;;;;;;4.00;3.60;;;4.70;99.90;4.00;99049;;;;564123;251;24168;-85
2022/12/07 11:18:29;;;;;;;3.77;3.37;;;4.70;99.90;3.90;99057;;;;564225;251;24169;-82
2022/12/07 11:21:08;;;;;;;4.33;3.77;;;4.60;99.90;3.80;99042;;;;561641;250;24120;-85
2022/12/07 11:23:58;;;;;;;5.27;3.33;;;4.60;99.90;3.80;99036;;;;565324;250;24104;-81
2022/12/07 11:26:31;;;;;;;2.80;2.50;;;4.50;99.90;3.80;99036;;;;564825;251;24146;-86
2022/12/07 11:29:20;;;;;;;4.20;3.80;;;4.50;99.90;3.70;99041;;;;564570;251;24149;-81
2022/12/07 11:32:32;;;;;;;7.00;4.17;;;4.40;99.90;3.60;99027;;;;572629;250;24137;-77
2022/12/07 11:34:57;;;;;;;4.77;4.27;;;4.40;99.90;3.60;99025;;;;564710;251;24126;-78
2022/12/07 11:37:27;;;;;;;4.03;3.30;;;4.40;99.90;3.60;99023;;;;573350;250;24136;-73
2022/12/07 11:40:05;;;;;;;11.47;4.60;;;4.30;99.90;3.50;99027;;;;573512;251;24160;-77
2022/12/07 11:42:42;;;;;;;5.47;3.60;;;4.20;99.90;3.50;99027;;;;562896;251;24165;-73
2022/12/07 11:45:17;;;;;;;3.97;3.37;;;4.20;99.90;3.50;99023;;;;573029;251;24162;-77
2022/12/07 11:48:03;;;;;;;7.53;4.17;;;4.20;99.90;3.40;99019;;;;573137;246;24111;-74
2022/12/07 11:50:46;;;;;;;4.63;4.20;;;4.10;99.90;3.30;99015;;;;572555;251;27327;-76